Terminal Aerodrome Forecast
Issued by NWS Twin Cities, MN

Home | Current Version | Previous Version | Text Only | Print | Product List | Glossary On
Versions: 1 2 3 4 5 6 7 8 9 10 11 12 13 14 15 16 17 18 19
000
FTUS43 KMPX 160927 AAA
TAFEAU
TAF AMD
KEAU 160927Z 1609/1706 VRB03KT 3SM BR SCT300
     FM161500 VRB03KT 6SM BR SCT030 BKN120
     FM162300 08004KT 5SM -FZRASN BR SCT015 OVC025
      TEMPO 1702/1706 2SM -FZRASN BR OVC015=

USA.gov is the U.S. government's official web portal to all federal, state and local government web resources and services.